Time;durP1;ratioP1;P1;durP2;ratioP2;P2;SDS_P1;SDS_P2;PMS_P1;PMS_P2;Temp;Humidity;BMP_temperature;BMP_pressure;BME280_temperature;BME280_humidity;BME280_pressure;Samples;Min_cycle;Max_cycle;Signal;HPM_P1;HPM_P2
2023/10/15 00:00:43;;;;;;;3.03;1.80;;;11.80;98.20;;;;;;4953394;28;20461;-84
2023/10/15 00:03:33;;;;;;;4.57;1.70;;;11.80;98.20;;;;;;4943793;28;21066;-84
2023/10/15 00:06:32;;;;;;;2.77;1.63;;;11.80;98.20;;;;;;4903256;29;20466;-84
2023/10/15 00:09:39;;;;;;;2.87;2.23;;;11.80;98.10;;;;;;4908837;28;20599;-85
2023/10/15 00:13:26;;;;;;;6.30;1.87;;;12.00;98.20;;;;;;4882408;29;20471;-84
2023/10/15 00:17:05;;;;;;;2.90;1.80;;;12.30;97.50;;;;;;4880630;29;21046;-85
2023/10/15 00:20:20;;;;;;;3.93;1.70;;;12.00;97.20;;;;;;4900760;23;20578;-84
2023/10/15 00:23:56;;;;;;;2.63;1.33;;;11.70;97.70;;;;;;4956462;28;20452;-86
2023/10/15 00:27:21;;;;;;;4.80;2.10;;;11.60;98.10;;;;;;4959640;28;20433;-84
2023/10/15 00:33:49;;;;;;;7.07;2.00;;;11.60;98.60;;;;;;4961712;28;20455;-84
2023/10/15 00:37:14;;;;;;;1.83;1.50;;;11.90;98.00;;;;;;4951018;28;20909;-85
2023/10/15 00:40:30;;;;;;;4.90;1.90;;;11.80;97.70;;;;;;4974437;28;20491;-86
2023/10/15 00:44:00;;;;;;;5.60;1.70;;;11.70;98.10;;;;;;4958746;28;20432;-83
2023/10/15 00:47:10;;;;;;;3.57;2.70;;;11.50;98.40;;;;;;4928292;28;20496;-85
2023/10/15 00:50:14;;;;;;;3.17;1.87;;;11.30;99.00;;;;;;4947808;28;20515;-86
2023/10/15 00:57:25;;;;;;;4.90;2.63;;;11.40;99.10;;;;;;4929636;28;20482;-86
2023/10/15 01:07:34;;;;;;;2.57;1.90;;;11.40;98.80;;;;;;4957624;28;20478;-84
2023/10/15 01:10:42;;;;;;;3.03;1.43;;;11.30;98.90;;;;;;4947945;28;20484;-86
2023/10/15 01:17:36;;;;;;;1.67;1.53;;;11.20;99.40;;;;;;4969104;28;20550;-87
2023/10/15 01:20:40;;;;;;;3.93;2.30;;;11.30;99.10;;;;;;4956785;28;20492;-85
2023/10/15 01:23:32;;;;;;;3.10;1.93;;;11.40;98.80;;;;;;4965977;28;20596;-86
2023/10/15 01:30:09;;;;;;;;;;;;;;;;;;;;;
2023/10/15 01:33:05;;;;;;;4.50;1.70;;;11.40;98.60;;;;;;4970196;28;20493;-85
2023/10/15 01:36:15;;;;;;;2.10;1.37;;;11.20;98.70;;;;;;4961946;28;20492;-86
2023/10/15 01:39:32;;;;;;;2.70;2.07;;;11.00;99.10;;;;;;4938649;28;20514;-86
2023/10/15 01:46:05;;;;;;;4.63;1.83;;;10.80;99.70;;;;;;4978007;28;20447;-84
2023/10/15 01:53:24;;;;;;;7.23;1.53;;;10.70;99.90;;;;;;4961964;28;20522;-87
2023/10/15 02:00:04;;;;;;;5.80;1.63;;;10.70;99.90;;;;;;4982420;28;20474;-86
2023/10/15 02:03:01;;;;;;;2.40;1.90;;;10.60;99.90;;;;;;4971638;28;20465;-86
2023/10/15 02:05:50;;;;;;;4.50;1.87;;;10.80;99.90;;;;;;4952563;28;20448;-84
2023/10/15 02:09:00;;;;;;;3.27;1.67;;;10.70;99.90;;;;;;4895219;29;20497;-86
2023/10/15 02:12:15;;;;;;;3.70;1.50;;;10.70;99.90;;;;;;4907315;29;20554;-85
2023/10/15 02:15:28;;;;;;;3.67;1.70;;;10.60;99.90;;;;;;4890974;29;20462;-84
2023/10/15 02:18:55;;;;;;;4.20;1.50;;;10.80;99.90;;;;;;4944231;28;20954;-83
2023/10/15 02:22:25;;;;;;;3.23;1.43;;;10.70;99.90;;;;;;4877353;29;20515;-85
2023/10/15 02:25:16;;;;;;;3.43;1.63;;;10.60;99.90;;;;;;4872594;29;20479;-85
2023/10/15 02:28:36;;;;;;;5.37;2.10;;;10.80;99.90;;;;;;4887823;29;20493;-85
2023/10/15 02:31:56;;;;;;;;;;;;;;;;;;;;;
2023/10/15 02:34:41;;;;;;;2.10;1.80;;;11.00;98.90;;;;;;4875122;29;20444;-86
2023/10/15 02:38:08;;;;;;;5.80;1.70;;;10.80;99.10;;;;;;4875815;29;20455;-85
2023/10/15 02:41:10;;;;;;;3.27;1.50;;;10.70;99.40;;;;;;4885983;29;21380;-84
2023/10/15 02:44:18;;;;;;;4.07;1.63;;;10.60;99.70;;;;;;4819807;29;21006;-84
2023/10/15 02:47:20;;;;;;;5.20;1.83;;;10.50;99.90;;;;;;4799940;29;20470;-85
2023/10/15 02:57:03;;;;;;;5.10;1.70;;;10.40;99.90;;;;;;4847329;29;20470;-86
2023/10/15 03:03:15;;;;;;;7.13;1.87;;;10.20;99.90;;;;;;4926532;28;20503;-86
2023/10/15 03:06:28;;;;;;;6.80;2.10;;;10.40;99.90;;;;;;4943920;28;20464;-85
2023/10/15 03:10:21;;;;;;;2.50;1.67;;;10.30;99.90;;;;;;4953733;28;20918;-84
2023/10/15 03:13:17;;;;;;;4.17;1.77;;;10.30;99.90;;;;;;4941240;28;20508;-86
2023/10/15 03:16:30;;;;;;;4.33;1.90;;;10.30;99.90;;;;;;4944727;28;20464;-86
2023/10/15 03:19:33;;;;;;;4.50;1.70;;;10.30;99.90;;;;;;4946117;28;20462;-85
2023/10/15 03:22:24;;;;;;;3.07;2.13;;;10.40;99.90;;;;;;4964900;28;21210;-85
2023/10/15 03:31:48;;;;;;;2.77;1.20;;;10.40;99.90;;;;;;4940682;28;20464;-82
2023/10/15 03:38:48;;;;;;;7.30;1.57;;;10.50;99.90;;;;;;4958197;28;20464;-84
2023/10/15 03:42:08;;;;;;;3.97;1.47;;;10.50;99.90;;;;;;4939112;28;20993;-83
2023/10/15 03:44:59;;;;;;;4.10;1.70;;;10.60;99.90;;;;;;4937163;28;20477;-86
2023/10/15 03:47:47;;;;;;;5.03;1.97;;;10.50;99.90;;;;;;4949063;28;20455;-83
2023/10/15 03:54:15;;;;;;;3.03;1.20;;;10.60;99.90;;;;;;4962174;28;20556;-86
2023/10/15 04:01:27;;;;;;;2.57;1.50;;;10.70;99.90;;;;;;4965548;28;20494;-85
2023/10/15 04:04:02;;;;;;;3.60;1.83;;;10.70;99.90;;;;;;4954347;28;20931;-84
2023/10/15 04:06:41;;;;;;;6.77;1.90;;;10.80;99.90;;;;;;4939968;28;20459;-86
2023/10/15 04:09:42;;;;;;;6.00;1.60;;;10.80;99.80;;;;;;4944665;28;20490;-85
2023/10/15 04:12:41;;;;;;;3.77;1.77;;;10.80;99.60;;;;;;4943815;28;20491;-84
2023/10/15 04:15:48;;;;;;;2.60;1.70;;;10.80;99.50;;;;;;4939676;28;20579;-86
2023/10/15 04:18:34;;;;;;;3.40;1.70;;;10.90;99.60;;;;;;4939399;28;21017;-83
2023/10/15 04:21:25;;;;;;;2.57;1.40;;;10.90;99.50;;;;;;4943926;28;20857;-83
2023/10/15 04:24:42;;;;;;;3.13;2.13;;;10.90;99.30;;;;;;4945916;28;21130;-86
2023/10/15 04:27:47;;;;;;;2.47;1.53;;;10.90;99.10;;;;;;4965594;28;20935;-84
2023/10/15 04:31:04;;;;;;;3.53;2.10;;;10.90;99.10;;;;;;4934564;28;20623;-84
2023/10/15 04:34:01;;;;;;;4.77;1.80;;;10.90;99.00;;;;;;4945563;28;20447;-84
2023/10/15 04:37:07;;;;;;;7.20;1.90;;;10.80;98.90;;;;;;4943568;28;20470;-84
2023/10/15 04:39:51;;;;;;;5.00;2.37;;;10.80;99.00;;;;;;4939718;28;20487;-84
2023/10/15 04:42:59;;;;;;;3.53;2.00;;;10.90;99.10;;;;;;4921840;28;20436;-84
2023/10/15 04:45:42;;;;;;;3.37;1.80;;;10.90;99.10;;;;;;4959431;28;20511;-82
2023/10/15 04:48:38;;;;;;;4.67;2.03;;;10.90;98.90;;;;;;4941305;28;20504;-84
2023/10/15 04:51:54;;;;;;;;;;;;;;;;;;;;;
2023/10/15 04:55:00;;;;;;;4.10;2.30;;;10.80;98.90;;;;;;4958176;28;20562;-85
2023/10/15 04:58:04;;;;;;;2.97;1.67;;;10.80;99.00;;;;;;4938862;28;20467;-86
2023/10/15 05:01:07;;;;;;;2.63;2.20;;;10.90;99.10;;;;;;4938165;28;20495;-84
2023/10/15 05:04:16;;;;;;;3.30;2.57;;;10.80;99.00;;;;;;4957920;28;20459;-84
2023/10/15 05:07:05;;;;;;;3.87;2.23;;;10.80;98.90;;;;;;4941495;28;20456;-87
2023/10/15 05:09:58;;;;;;;4.13;1.80;;;10.80;99.10;;;;;;4946270;28;20487;-86
2023/10/15 05:12:36;;;;;;;2.93;2.10;;;10.90;99.10;;;;;;4940080;28;20460;-85
2023/10/15 05:15:27;;;;;;;3.00;1.80;;;10.90;99.20;;;;;;4934968;28;21057;-84
2023/10/15 05:18:22;;;;;;;2.20;1.70;;;10.80;99.20;;;;;;4944206;28;20457;-85
2023/10/15 05:21:00;;;;;;;3.50;2.00;;;11.00;99.10;;;;;;4942119;28;20480;-84
2023/10/15 05:23:57;;;;;;;2.13;1.67;;;10.90;99.30;;;;;;4957362;28;20524;-86
2023/10/15 05:27:36;;;;;;;3.57;1.70;;;10.80;99.40;;;;;;4952834;28;20451;-82
2023/10/15 05:30:41;;;;;;;3.10;1.40;;;10.80;99.60;;;;;;4954799;28;20485;-83
2023/10/15 05:33:50;;;;;;;2.40;1.43;;;10.80;99.90;;;;;;4955284;28;20495;-83
2023/10/15 05:36:59;;;;;;;4.50;2.07;;;10.80;99.90;;;;;;4938644;28;20472;-85
2023/10/15 05:39:52;;;;;;;4.40;1.50;;;10.70;99.80;;;;;;4943257;28;21096;-83
2023/10/15 05:42:41;;;;;;;3.80;1.80;;;10.70;99.90;;;;;;4952166;28;20491;-84
2023/10/15 05:45:39;;;;;;;2.00;1.80;;;10.70;99.90;;;;;;4944526;28;20462;-85
2023/10/15 05:48:45;;;;;;;3.40;2.27;;;10.70;99.90;;;;;;4944555;28;20467;-85
2023/10/15 05:51:34;;;;;;;5.40;2.00;;;10.70;99.90;;;;;;4943915;28;20603;-87
2023/10/15 05:54:43;;;;;;;2.57;1.60;;;10.80;99.90;;;;;;4944192;28;20502;-85
2023/10/15 05:58:01;;;;;;;4.40;2.03;;;10.80;99.90;;;;;;4943431;28;20474;-83
2023/10/15 06:00:56;;;;;;;1.60;1.50;;;10.80;99.90;;;;;;4937682;28;20583;-83
2023/10/15 06:04:01;;;;;;;2.10;1.40;;;10.70;99.90;;;;;;4894870;29;20435;-85
2023/10/15 06:07:13;;;;;;;2.43;1.63;;;10.70;99.90;;;;;;4880217;29;20451;-81
2023/10/15 06:10:33;;;;;;;3.57;1.57;;;10.70;99.90;;;;;;4868128;29;20547;-85
2023/10/15 06:13:36;;;;;;;5.73;1.63;;;10.70;99.90;;;;;;4883127;29;20463;-84
2023/10/15 06:16:52;;;;;;;2.33;2.00;;;10.70;99.90;;;;;;4880669;29;20426;-85
2023/10/15 06:19:45;;;;;;;4.50;1.47;;;10.70;99.90;;;;;;4885472;29;20558;-83
2023/10/15 06:26:20;;;;;;;3.97;2.10;;;10.60;99.90;;;;;;4805369;29;20467;-84
2023/10/15 06:29:13;;;;;;;3.60;1.47;;;10.60;99.90;;;;;;4826178;29;20455;-84
2023/10/15 06:32:16;;;;;;;2.03;1.80;;;10.70;99.90;;;;;;4813151;29;20451;-83
2023/10/15 06:35:05;;;;;;;3.03;1.60;;;10.70;99.90;;;;;;4826062;29;20463;-83
2023/10/15 06:38:02;;;;;;;4.73;1.97;;;10.70;99.90;;;;;;4818407;29;20453;-83
2023/10/15 06:44:44;;;;;;;4.00;1.80;;;10.70;99.90;;;;;;4844019;29;20539;-85
2023/10/15 06:47:53;;;;;;;2.17;1.67;;;10.70;99.90;;;;;;4844050;29;20898;-82
2023/10/15 06:50:37;;;;;;;2.37;1.90;;;10.60;99.90;;;;;;4844886;29;21014;-84
2023/10/15 06:53:23;;;;;;;2.50;1.60;;;10.60;99.90;;;;;;4849679;29;20563;-85
2023/10/15 06:56:56;;;;;;;2.33;1.60;;;10.60;99.90;;;;;;4832110;29;20536;-85
2023/10/15 06:59:46;;;;;;;3.13;2.40;;;10.70;99.90;;;;;;4883829;28;20615;-84
2023/10/15 07:03:11;;;;;;;2.20;1.80;;;10.70;99.90;;;;;;4949163;28;20502;-85
2023/10/15 07:06:41;;;;;;;2.10;1.67;;;10.70;99.90;;;;;;4951270;28;20854;-86
2023/10/15 07:13:02;;;;;;;2.33;1.30;;;10.80;99.90;;;;;;4973125;28;20450;-84
2023/10/15 07:15:51;;;;;;;2.27;1.80;;;11.10;99.90;;;;;;4880082;29;20445;-86
2023/10/15 07:19:07;;;;;;;4.20;2.33;;;10.90;99.90;;;;;;4903312;29;20487;-85
2023/10/15 07:21:55;;;;;;;2.27;1.50;;;11.00;99.90;;;;;;4909937;29;20455;-86
2023/10/15 07:24:31;;;;;;;1.53;1.43;;;11.00;99.90;;;;;;4889027;29;20469;-86
2023/10/15 07:27:22;;;;;;;2.60;1.63;;;11.00;99.90;;;;;;4885944;29;20442;-84
2023/10/15 07:30:15;;;;;;;2.23;1.60;;;11.00;99.90;;;;;;4895495;29;20497;-86
2023/10/15 07:33:17;;;;;;;1.70;1.30;;;11.10;99.90;;;;;;4898932;29;20763;-83
2023/10/15 07:36:27;;;;;;;3.03;2.30;;;11.00;99.90;;;;;;4886203;29;20497;-86
2023/10/15 07:39:42;;;;;;;1.70;1.60;;;11.00;99.90;;;;;;4917826;23;20494;-82
2023/10/15 07:42:53;;;;;;;2.00;1.70;;;11.00;99.90;;;;;;4979459;28;20471;-84
2023/10/15 07:46:04;;;;;;;3.80;1.97;;;11.30;99.90;;;;;;4967322;28;20669;-83
2023/10/15 07:49:12;;;;;;;1.67;1.37;;;11.70;99.90;;;;;;4954778;28;20455;-85
2023/10/15 07:52:16;;;;;;;2.10;1.70;;;12.10;98.90;;;;;;4942133;28;20487;-83
2023/10/15 07:55:10;;;;;;;2.63;2.43;;;11.80;98.20;;;;;;4960419;28;20459;-86
2023/10/15 07:57:57;;;;;;;2.17;1.90;;;11.70;98.80;;;;;;4960196;28;20438;-84
2023/10/15 08:04:06;;;;;;;2.30;1.67;;;11.50;99.00;;;;;;4980966;28;20461;-85
2023/10/15 08:07:24;;;;;;;2.07;1.80;;;11.60;99.30;;;;;;4900680;29;20460;-84
2023/10/15 08:10:36;;;;;;;2.10;2.00;;;11.40;99.40;;;;;;4878074;29;20484;-84
2023/10/15 08:16:54;;;;;;;1.93;1.83;;;11.20;99.90;;;;;;4877684;29;20455;-84
2023/10/15 08:19:53;;;;;;;2.63;2.17;;;11.20;99.90;;;;;;4898037;29;20490;-85
2023/10/15 08:22:45;;;;;;;2.40;2.20;;;11.10;99.90;;;;;;4878175;29;20479;-84
2023/10/15 08:25:49;;;;;;;2.27;2.17;;;11.00;99.90;;;;;;4900727;29;20611;-85
2023/10/15 08:29:15;;;;;;;4.80;2.30;;;11.00;99.90;;;;;;4895487;29;20465;-84
2023/10/15 08:33:03;;;;;;;2.40;2.13;;;11.00;99.90;;;;;;4904995;29;20466;-84
2023/10/15 08:35:46;;;;;;;2.70;2.50;;;11.10;99.90;;;;;;4879976;29;20536;-86
2023/10/15 08:38:26;;;;;;;4.07;2.70;;;11.10;99.90;;;;;;4887094;29;20463;-86
2023/10/15 08:41:25;;;;;;;3.80;2.40;;;11.10;99.90;;;;;;4930295;28;20582;-85
2023/10/15 08:44:18;;;;;;;3.90;3.47;;;11.10;99.90;;;;;;4949138;28;20461;-83
2023/10/15 08:47:00;;;;;;;3.50;2.03;;;11.00;99.90;;;;;;4934721;28;20464;-84
2023/10/15 08:49:45;;;;;;;4.10;3.17;;;11.10;99.90;;;;;;4967799;28;20492;-85
2023/10/15 08:53:04;;;;;;;3.03;2.30;;;11.20;99.90;;;;;;4942309;28;20477;-86
2023/10/15 08:56:03;;;;;;;3.90;2.50;;;11.20;99.90;;;;;;4944837;28;20467;-87
2023/10/15 08:59:03;;;;;;;2.13;1.93;;;11.30;99.90;;;;;;4947282;28;20448;-83
2023/10/15 09:02:05;;;;;;;2.77;1.87;;;11.40;99.90;;;;;;4944086;28;20590;-84
2023/10/15 09:04:57;;;;;;;1.97;1.87;;;11.40;99.90;;;;;;4932108;28;20452;-82
2023/10/15 09:07:42;;;;;;;3.27;2.90;;;11.40;99.90;;;;;;4944173;28;20469;-83
2023/10/15 09:17:09;;;;;;;3.33;2.27;;;11.50;99.90;;;;;;4950674;28;20478;-84
2023/10/15 09:20:17;;;;;;;2.43;1.93;;;11.50;99.90;;;;;;4959781;28;20476;-83
2023/10/15 09:23:29;;;;;;;5.00;2.03;;;11.50;99.90;;;;;;4959473;28;20450;-84
2023/10/15 09:26:42;;;;;;;1.93;1.80;;;11.70;99.90;;;;;;4946859;28;20443;-84
2023/10/15 09:29:30;;;;;;;1.80;1.70;;;11.70;99.90;;;;;;4945965;28;20476;-86
2023/10/15 09:32:38;;;;;;;;;;;;;;;;;;;;;
2023/10/15 09:35:35;;;;;;;1.60;1.50;;;11.60;99.10;;;;;;4957010;28;20475;-84
2023/10/15 09:38:33;;;;;;;1.60;1.50;;;11.60;99.40;;;;;;4947223;28;21073;-84
2023/10/15 09:42:05;;;;;;;1.83;1.57;;;11.70;99.80;;;;;;4957626;28;21883;-85
2023/10/15 09:48:29;;;;;;;5.03;3.67;;;13.50;96.80;;;;;;4956226;28;20458;-82
2023/10/15 09:54:42;;;;;;;2.47;1.40;;;13.00;95.70;;;;;;4949852;28;21630;-84
2023/10/15 09:57:51;;;;;;;1.53;1.43;;;12.70;96.20;;;;;;4936230;28;20511;-83
2023/10/15 10:01:16;;;;;;;1.43;1.30;;;12.40;95.80;;;;;;4940643;28;20463;-84
2023/10/15 10:04:40;;;;;;;1.20;1.10;;;12.20;96.30;;;;;;4937130;28;20460;-83
2023/10/15 10:07:55;;;;;;;1.97;1.47;;;12.10;96.80;;;;;;4941946;28;20463;-83
2023/10/15 10:11:08;;;;;;;2.10;2.00;;;12.00;97.50;;;;;;4960099;28;20493;-85
2023/10/15 10:13:56;;;;;;;1.43;1.30;;;12.10;97.70;;;;;;4934109;28;20463;-84
2023/10/15 10:16:42;;;;;;;2.53;1.23;;;12.00;97.80;;;;;;4944255;28;20468;-86
2023/10/15 10:20:10;;;;;;;1.30;1.20;;;12.00;97.50;;;;;;4956253;28;20486;-84
2023/10/15 10:23:22;;;;;;;2.20;1.40;;;11.80;97.20;;;;;;4978547;28;20448;-84
2023/10/15 10:26:41;;;;;;;1.30;1.20;;;11.70;97.80;;;;;;4966614;28;20467;-84
2023/10/15 10:29:41;;;;;;;1.60;1.47;;;11.80;98.20;;;;;;4968698;28;20530;-84
2023/10/15 10:32:32;;;;;;;2.73;1.63;;;11.80;98.20;;;;;;4963896;28;21073;-84
2023/10/15 10:35:38;;;;;;;2.30;1.53;;;11.80;98.00;;;;;;4931132;28;20796;-87
2023/10/15 10:38:53;;;;;;;2.90;1.60;;;11.90;98.10;;;;;;4955318;28;20463;-87
2023/10/15 10:42:02;;;;;;;4.83;2.73;;;11.90;98.00;;;;;;4955496;28;20482;-86
2023/10/15 10:44:49;;;;;;;2.50;1.33;;;12.10;97.90;;;;;;4959169;28;20436;-84
2023/10/15 10:47:52;;;;;;;2.50;1.50;;;12.10;97.00;;;;;;4944424;28;20513;-85
2023/10/15 10:51:18;;;;;;;2.93;1.50;;;12.20;96.40;;;;;;4958176;28;20579;-86
2023/10/15 10:54:05;;;;;;;2.03;1.73;;;12.20;96.10;;;;;;4957763;28;21160;-85
2023/10/15 10:56:58;;;;;;;2.93;2.10;;;12.30;96.10;;;;;;4968123;28;20482;-85
2023/10/15 11:00:05;;;;;;;1.73;1.47;;;12.40;95.80;;;;;;4953489;28;20464;-85
2023/10/15 11:03:08;;;;;;;2.67;1.47;;;12.50;95.80;;;;;;4966655;28;20547;-86
2023/10/15 11:05:51;;;;;;;2.37;1.30;;;12.70;95.80;;;;;;4952042;28;20464;-83
2023/10/15 11:08:37;;;;;;;1.80;1.30;;;12.80;95.10;;;;;;4960929;28;20439;-84
2023/10/15 11:11:15;;;;;;;2.00;1.90;;;12.70;94.80;;;;;;4965260;28;20571;-85
2023/10/15 11:14:57;;;;;;;3.10;1.80;;;12.90;95.00;;;;;;5036256;27;3582000;-85
2023/10/15 11:18:08;;;;;;;1.30;1.20;;;12.90;93.80;;;;;;5116808;27;20291;-86
2023/10/15 11:21:30;;;;;;;2.30;1.33;;;12.90;93.90;;;;;;5127736;27;20476;-85
2023/10/15 11:24:59;;;;;;;2.73;1.67;;;13.00;93.70;;;;;;5116163;27;20489;-86
2023/10/15 11:28:12;;;;;;;2.63;1.40;;;13.10;93.20;;;;;;5115281;27;20497;-86
2023/10/15 11:31:11;;;;;;;1.70;1.40;;;13.20;93.00;;;;;;5127979;27;20481;-86
2023/10/15 11:34:00;;;;;;;1.53;1.37;;;13.20;92.90;;;;;;5102931;27;20487;-85
2023/10/15 11:36:56;;;;;;;3.33;1.20;;;13.20;93.10;;;;;;5105722;27;20476;-86
2023/10/15 11:39:56;;;;;;;2.50;0.90;;;13.10;93.80;;;;;;5108865;27;20492;-85
2023/10/15 11:43:18;;;;;;;1.50;1.00;;;12.80;92.90;;;;;;5110135;27;20436;-85
2023/10/15 11:46:07;;;;;;;2.20;0.60;;;12.70;93.20;;;;;;5095874;27;20466;-85
2023/10/15 11:49:03;;;;;;;2.20;1.07;;;12.70;93.70;;;;;;5118175;27;20457;-86
2023/10/15 11:51:58;;;;;;;0.97;0.60;;;12.70;93.50;;;;;;5113968;27;20897;-86
2023/10/15 11:58:23;;;;;;;1.20;1.07;;;12.80;93.70;;;;;;5092146;27;20447;-86
2023/10/15 12:01:54;;;;;;;1.30;1.20;;;12.80;93.50;;;;;;5124158;27;20432;-84
2023/10/15 12:05:23;;;;;;;1.70;1.60;;;12.80;93.50;;;;;;5124957;27;20534;-87
2023/10/15 12:08:34;;;;;;;2.50;1.50;;;12.80;93.90;;;;;;5101714;27;20468;-85
2023/10/15 12:11:40;;;;;;;2.03;1.30;;;12.70;94.30;;;;;;5102853;27;20436;-84
2023/10/15 12:15:00;;;;;;;;;;;;;;;;;;;;;
2023/10/15 12:18:26;;;;;;;4.57;1.70;;;12.70;94.00;;;;;;5128407;27;20449;-84
2023/10/15 12:21:30;;;;;;;4.77;1.83;;;12.80;93.80;;;;;;5126706;27;21063;-85
2023/10/15 12:24:17;;;;;;;1.33;1.27;;;12.90;93.90;;;;;;5105009;27;20549;-85
2023/10/15 12:27:14;;;;;;;4.20;1.80;;;13.10;93.50;;;;;;5097425;28;20549;-86
2023/10/15 12:30:29;;;;;;;3.00;2.33;;;13.40;93.00;;;;;;5091596;27;20460;-85
2023/10/15 12:33:15;;;;;;;1.77;1.50;;;13.30;93.10;;;;;;5103231;27;21182;-85
2023/10/15 12:36:03;;;;;;;1.80;1.70;;;13.20;92.80;;;;;;5100853;28;20499;-85
2023/10/15 12:39:40;;;;;;;1.83;1.60;;;13.20;92.80;;;;;;5116048;27;20459;-85
2023/10/15 12:42:27;;;;;;;4.47;1.60;;;13.10;93.60;;;;;;5113971;27;20807;-86
2023/10/15 12:49:01;;;;;;;3.17;1.70;;;13.00;95.00;;;;;;5042580;28;20425;-84
2023/10/15 12:52:12;;;;;;;2.53;2.23;;;13.40;94.50;;;;;;5047524;28;20995;-84
2023/10/15 12:55:15;;;;;;;4.97;2.40;;;13.10;95.10;;;;;;5031782;28;21029;-84
2023/10/15 12:58:30;;;;;;;1.90;1.73;;;12.80;95.50;;;;;;5048551;28;20483;-85
2023/10/15 13:01:07;;;;;;;4.00;1.80;;;13.10;95.30;;;;;;5030457;28;20506;-86
2023/10/15 13:04:05;;;;;;;1.87;1.77;;;13.30;95.30;;;;;;5046403;28;20441;-84
2023/10/15 13:06:51;;;;;;;2.13;1.80;;;13.20;95.40;;;;;;5037156;28;20460;-84
2023/10/15 13:09:45;;;;;;;3.07;1.80;;;13.60;95.50;;;;;;5035120;28;21011;-85
2023/10/15 13:12:28;;;;;;;1.47;1.37;;;13.80;94.60;;;;;;5032344;28;20444;-87
2023/10/15 13:15:30;;;;;;;2.57;1.40;;;13.50;94.20;;;;;;5031035;28;21001;-84
2023/10/15 13:18:40;;;;;;;;;;;;;;;;;;;;;
2023/10/15 13:21:42;;;;;;;1.53;1.23;;;13.90;94.50;;;;;;5043609;28;20441;-88
2023/10/15 13:24:28;;;;;;;1.93;1.47;;;14.50;92.80;;;;;;5051162;27;20560;-85
2023/10/15 13:27:55;;;;;;;2.63;1.50;;;14.90;92.10;;;;;;5066724;28;20501;-84
2023/10/15 13:31:05;;;;;;;1.87;1.37;;;15.00;91.60;;;;;;5087209;27;20441;-85
2023/10/15 13:33:52;;;;;;;2.00;1.83;;;14.80;91.30;;;;;;5107878;27;20473;-85
2023/10/15 13:37:39;;;;;;;2.77;1.80;;;14.60;91.60;;;;;;5088179;28;20479;-84
2023/10/15 13:39:52;;;;;;;3.23;1.77;;;14.60;92.40;;;;;;5116497;27;20481;-87
2023/10/15 13:42:36;;;;;;;2.00;1.40;;;14.80;90.80;;;;;;5116569;27;20430;-86
2023/10/15 13:45:17;;;;;;;3.53;1.40;;;14.40;90.90;;;;;;5115638;27;20433;-86
2023/10/15 13:48:02;;;;;;;1.60;1.13;;;14.20;90.70;;;;;;5121717;27;20441;-87
2023/10/15 13:51:04;;;;;;;2.30;1.13;;;14.40;91.00;;;;;;5111716;28;20454;-86
2023/10/15 13:53:43;;;;;;;2.93;1.00;;;14.50;90.60;;;;;;5117712;27;20581;-84
2023/10/15 13:57:00;;;;;;;2.03;0.90;;;14.40;90.30;;;;;;5105509;27;20483;-85
2023/10/15 13:59:46;;;;;;;1.10;0.90;;;14.10;90.60;;;;;;5101394;27;20466;-84
2023/10/15 14:03:05;;;;;;;5.60;1.40;;;13.90;90.30;;;;;;5107664;27;20428;-86
2023/10/15 14:05:56;;;;;;;1.33;0.87;;;13.80;90.70;;;;;;5117381;27;20548;-86
2023/10/15 14:09:09;;;;;;;1.63;1.10;;;13.80;90.90;;;;;;5031382;28;20757;-86
2023/10/15 14:15:10;;;;;;;1.53;1.00;;;14.20;90.80;;;;;;5029234;28;20453;-86
2023/10/15 14:17:59;;;;;;;1.77;1.03;;;14.10;90.30;;;;;;5014453;28;20485;-87
2023/10/15 14:21:16;;;;;;;1.50;0.90;;;14.00;91.00;;;;;;5020435;28;20461;-86
2023/10/15 14:23:58;;;;;;;1.17;0.83;;;14.10;90.60;;;;;;5014004;28;20477;-85
2023/10/15 14:26:57;;;;;;;2.97;1.00;;;14.00;88.30;;;;;;5014330;28;20457;-87
2023/10/15 14:30:00;;;;;;;5.40;1.13;;;13.90;87.50;;;;;;5002384;28;20464;-87
2023/10/15 14:36:24;;;;;;;4.03;1.00;;;14.30;84.00;;;;;;5049896;28;20457;-84
2023/10/15 14:38:58;;;;;;;2.07;0.90;;;14.40;82.50;;;;;;5018866;28;20499;-84
2023/10/15 14:42:04;;;;;;;1.67;1.00;;;14.20;83.10;;;;;;5011716;28;21014;-84
2023/10/15 14:45:26;;;;;;;2.87;1.23;;;14.50;80.90;;;;;;4945228;28;20470;-86
2023/10/15 14:48:21;;;;;;;3.10;0.97;;;14.40;82.50;;;;;;5037919;28;20873;-87
2023/10/15 14:51:41;;;;;;;2.97;0.87;;;14.20;81.20;;;;;;5026893;28;20465;-86
2023/10/15 14:55:07;;;;;;;1.30;0.73;;;13.90;80.30;;;;;;4988645;28;20487;-86
2023/10/15 14:57:55;;;;;;;2.90;1.00;;;13.80;80.00;;;;;;5033725;28;20464;-85
2023/10/15 15:00:47;;;;;;;2.10;1.20;;;13.60;78.60;;;;;;4999569;28;20552;-87
2023/10/15 15:03:33;;;;;;;1.40;1.13;;;13.50;79.20;;;;;;4971324;28;20611;-85
2023/10/15 15:06:18;;;;;;;1.80;0.90;;;13.40;79.50;;;;;;4978344;28;20550;-84
2023/10/15 15:09:16;;;;;;;3.73;1.23;;;13.40;80.60;;;;;;4982784;28;20578;-87
2023/10/15 15:12:26;;;;;;;3.10;1.10;;;13.40;81.60;;;;;;4909933;28;21491;-88
2023/10/15 15:15:06;;;;;;;2.40;0.70;;;13.30;82.60;;;;;;4957716;28;20566;-86
2023/10/15 15:17:55;;;;;;;1.70;0.90;;;13.20;83.80;;;;;;4958896;28;20486;-87
2023/10/15 15:20:32;;;;;;;2.13;0.93;;;13.10;84.60;;;;;;4978377;28;20468;-85
2023/10/15 15:23:38;;;;;;;3.00;0.90;;;13.20;85.20;;;;;;5085350;28;20445;-85
2023/10/15 15:26:19;;;;;;;0.90;0.90;;;13.10;85.40;;;;;;5101142;28;20501;-84
2023/10/15 15:29:22;;;;;;;2.53;1.13;;;13.10;86.00;;;;;;5103956;28;20484;-85
2023/10/15 15:31:56;;;;;;;2.57;0.93;;;13.20;86.60;;;;;;5105465;28;20430;-89
2023/10/15 15:37:43;;;;;;;;;;;;;;;;;;;;;
2023/10/15 15:40:26;;;;;;;2.07;0.73;;;13.20;85.40;;;;;;5100349;28;20491;-86
2023/10/15 15:43:30;;;;;;;2.10;1.67;;;13.10;85.60;;;;;;5089163;28;20445;-86
2023/10/15 15:46:33;;;;;;;1.83;1.07;;;13.20;85.80;;;;;;5086819;28;20446;-83
2023/10/15 15:49:31;;;;;;;1.20;0.90;;;13.10;85.50;;;;;;5092750;28;20440;-86
2023/10/15 15:52:31;;;;;;;;;;;;;;;;;;;;;
2023/10/15 15:55:21;;;;;;;2.70;0.90;;;13.20;87.50;;;;;;5094447;28;20448;-85
2023/10/15 15:58:47;;;;;;;2.50;1.37;;;13.50;88.20;;;;;;5056950;28;20514;-85
2023/10/15 16:01:52;;;;;;;1.73;1.23;;;13.20;90.00;;;;;;5086228;28;21662;-85
2023/10/15 16:04:54;;;;;;;1.23;1.10;;;13.00;91.20;;;;;;5085411;27;20482;-86
2023/10/15 16:08:02;;;;;;;;;;;;;;;;;;;;;
2023/10/15 16:10:57;;;;;;;1.40;1.10;;;12.90;91.80;;;;;;5099256;27;20527;-87
2023/10/15 16:20:17;;;;;;;1.30;1.20;;;12.60;93.10;;;;;;5106712;27;21174;-85
2023/10/15 16:22:58;;;;;;;4.00;2.43;;;12.50;93.50;;;;;;5082057;27;20473;-86
2023/10/15 16:25:40;;;;;;;3.10;0.90;;;12.50;94.30;;;;;;5094715;27;20452;-85
2023/10/15 16:28:58;;;;;;;4.10;1.50;;;12.40;94.90;;;;;;5076958;27;20546;-85
2023/10/15 16:31:50;;;;;;;2.80;1.27;;;12.40;95.60;;;;;;5094773;28;20554;-85
2023/10/15 16:34:38;;;;;;;5.07;2.00;;;12.30;95.60;;;;;;5097455;27;20583;-86
2023/10/15 16:37:14;;;;;;;1.33;0.90;;;12.20;95.90;;;;;;5114403;27;20453;-84
2023/10/15 16:39:52;;;;;;;2.67;1.10;;;12.20;96.40;;;;;;5109486;27;20468;-84
2023/10/15 16:42:22;;;;;;;1.93;1.33;;;12.20;96.70;;;;;;5091080;27;20456;-85
2023/10/15 16:45:04;;;;;;;3.70;2.60;;;12.20;97.00;;;;;;5107325;27;20458;-86
2023/10/15 16:47:39;;;;;;;1.67;1.57;;;12.10;97.00;;;;;;5094173;27;20884;-84
2023/10/15 16:50:21;;;;;;;3.83;2.00;;;12.10;97.00;;;;;;5090739;28;20728;-85
2023/10/15 16:53:31;;;;;;;1.67;1.47;;;12.10;97.20;;;;;;5104751;27;20516;-85
2023/10/15 17:00:03;;;;;;;2.07;1.87;;;12.00;97.10;;;;;;5049074;28;20464;-84
2023/10/15 17:03:10;;;;;;;1.80;1.50;;;12.10;96.90;;;;;;5028371;28;20560;-86
2023/10/15 17:05:56;;;;;;;3.97;2.30;;;12.10;96.40;;;;;;5028758;28;20443;-85
2023/10/15 17:08:44;;;;;;;2.40;1.77;;;12.00;96.30;;;;;;5047225;28;20455;-83
2023/10/15 17:11:31;;;;;;;8.30;3.73;;;12.00;96.30;;;;;;5003814;28;20463;-87
2023/10/15 17:14:15;;;;;;;3.73;1.87;;;12.00;96.40;;;;;;5043460;28;20480;-86
2023/10/15 17:16:53;;;;;;;2.63;2.10;;;12.00;96.60;;;;;;5118652;27;20453;-87
2023/10/15 17:22:33;;;;;;;4.23;2.20;;;12.00;96.80;;;;;;5110160;27;20450;-85
2023/10/15 17:25:10;;;;;;;2.40;2.20;;;12.00;96.30;;;;;;5108757;27;20580;-85
2023/10/15 17:27:46;;;;;;;3.77;2.40;;;12.00;96.10;;;;;;5111108;27;20466;-84
2023/10/15 17:30:20;;;;;;;4.73;2.77;;;12.00;96.00;;;;;;5087786;28;22008;-87
2023/10/15 17:33:02;;;;;;;5.57;2.40;;;12.00;96.20;;;;;;5088310;28;20457;-85
2023/10/15 17:35:33;;;;;;;4.80;2.40;;;12.00;96.30;;;;;;5095037;27;20532;-86
2023/10/15 17:38:18;;;;;;;5.30;1.93;;;11.90;96.40;;;;;;5093976;27;22170;-85
2023/10/15 17:41:01;;;;;;;3.20;2.30;;;11.90;96.50;;;;;;5099512;27;20469;-84
2023/10/15 17:43:34;;;;;;;4.57;2.10;;;11.80;96.30;;;;;;5086245;28;20456;-85
2023/10/15 17:46:23;;;;;;;2.70;1.63;;;11.80;96.40;;;;;;5093698;27;20444;-86
2023/10/15 17:49:00;;;;;;;7.10;2.47;;;11.80;96.60;;;;;;5091046;27;20489;-86
2023/10/15 17:51:44;;;;;;;3.77;1.67;;;11.80;96.40;;;;;;5105024;27;20478;-85
2023/10/15 17:54:29;;;;;;;4.23;1.53;;;11.80;96.90;;;;;;5088551;27;20489;-87